Time;durP1;ratioP1;P1;durP2;ratioP2;P2;SDS_P1;SDS_P2;PMS_P1;PMS_P2;Temp;Humidity;BMP_temperature;BMP_pressure;BME280_temperature;BME280_humidity;BME280_pressure;Samples;Min_cycle;Max_cycle;Signal;HPM_P1;HPM_P2
2022/05/22 00:01:23;;;;;;;3.15;1.80;;;;;;;19.76;45.80;98066.34;5417277;26;20051;-76
2022/05/22 00:03:50;;;;;;;4.37;1.80;;;;;;;19.97;45.25;98061.19;5437547;26;20039;-76
2022/05/22 00:06:17;;;;;;;3.72;2.05;;;;;;;19.82;45.92;98065.03;5437075;26;20102;-76
2022/05/22 00:08:44;;;;;;;7.40;2.20;;;;;;;20.00;45.27;98071.41;5437363;26;20130;-76
2022/05/22 00:11:11;;;;;;;4.53;1.90;;;;;;;19.21;47.04;98056.75;5437539;26;20441;-76
2022/05/22 00:13:38;;;;;;;5.28;2.17;;;;;;;19.82;45.87;98065.03;5416717;26;20127;-76
2022/05/22 00:18:51;;;;;;;5.07;2.20;;;;;;;18.63;49.13;98058.56;5437007;26;20145;-76
2022/05/22 00:21:18;;;;;;;5.62;1.90;;;;;;;18.13;50.66;98050.91;5437643;26;20098;-76
2022/05/22 00:23:45;;;;;;;5.05;2.00;;;;;;;17.89;51.95;98055.31;5429064;26;221168;-75
2022/05/22 00:26:12;;;;;;;5.12;2.00;;;;;;;17.41;53.38;98046.56;5416717;26;20110;-76
2022/05/22 00:28:39;;;;;;;5.78;1.87;;;;;;;17.38;53.71;98042.41;5437244;26;20369;-75
2022/05/22 00:31:06;;;;;;;5.40;2.00;;;;;;;17.32;54.20;98037.59;5437119;26;20051;-75
2022/05/22 00:33:33;;;;;;;4.82;2.08;;;;;;;17.10;54.32;98027.00;5436990;26;20095;-75
2022/05/22 00:36:00;;;;;;;6.60;1.98;;;;;;;17.10;54.85;98027.00;5437488;26;20122;-76
2022/05/22 00:38:27;;;;;;;4.97;1.80;;;;;;;17.21;54.66;98033.16;5437281;26;20114;-76
2022/05/22 00:40:54;;;;;;;4.20;2.20;;;;;;;17.24;54.51;98037.34;5437172;26;20441;-76
2022/05/22 00:43:24;;;;;;;4.37;1.98;;;;;;;17.47;53.94;98039.16;5437378;26;20054;-76
2022/05/22 00:45:51;;;;;;;5.65;2.33;;;;;;;17.45;54.19;98035.00;5437527;26;20067;-76
2022/05/22 00:48:18;;;;;;;4.12;2.15;;;;;;;16.59;57.21;98024.38;5438394;26;20103;-75
2022/05/22 00:50:45;;;;;;;4.45;2.00;;;;;;;16.42;57.48;98017.72;5439975;26;20109;-76
2022/05/22 00:53:12;;;;;;;3.53;1.90;;;;;;;16.58;57.32;98012.31;5417123;26;20047;-75
2022/05/22 00:55:39;;;;;;;6.15;2.17;;;;;;;16.33;58.33;98019.16;5436930;26;20124;-75
2022/05/22 00:58:10;;;;;;;4.15;2.15;;;;;;;16.73;57.32;98025.16;5416926;26;20145;-76
2022/05/22 01:00:37;;;;;;;5.80;2.10;;;;;;;16.87;56.85;98018.19;5436970;26;20062;-75
2022/05/22 01:03:29;;;;;;;6.82;2.22;;;;;;;17.04;56.17;98018.69;5437052;26;20418;-75
2022/05/22 01:06:02;;;;;;;4.35;2.00;;;;;;;17.00;55.89;98017.22;5437481;26;20129;-75
2022/05/22 01:08:31;;;;;;;5.78;2.25;;;;;;;16.68;56.58;98018.59;5416443;26;20122;-75
2022/05/22 01:11:05;;;;;;;5.87;1.90;;;;;;;16.65;57.15;98009.19;5437344;26;20106;-75
2022/05/22 01:13:42;;;;;;;3.83;1.98;;;;;;;15.73;59.94;98009.22;5416924;26;20568;-75
2022/05/22 01:16:09;;;;;;;7.00;2.33;;;;;;;16.36;57.39;98010.31;5437102;26;20122;-75
2022/05/22 01:18:44;;;;;;;4.62;1.83;;;;;;;16.53;56.41;98004.81;5437217;26;20067;-76
2022/05/22 01:21:21;;;;;;;5.30;1.90;;;;;;;16.16;57.18;98009.88;5437302;26;20107;-75
2022/05/22 01:23:48;;;;;;;3.72;2.00;;;;;;;16.30;56.94;98008.97;5416430;26;20095;-76
2022/05/22 01:26:15;;;;;;;4.97;2.30;;;;;;;16.76;56.04;98004.09;5437281;26;20114;-76
2022/05/22 01:28:42;;;;;;;5.20;2.20;;;;;;;16.75;56.02;98004.22;5436996;26;20402;-76
2022/05/22 01:31:10;;;;;;;7.57;2.62;;;;;;;16.22;57.62;98000.00;5436625;26;20061;-75
2022/05/22 01:33:39;;;;;;;4.82;2.37;;;;;;;16.39;56.85;98007.53;5397896;26;20095;-76
2022/05/22 01:36:07;;;;;;;5.35;2.15;;;;;;;17.06;54.82;98008.97;5436936;26;20110;-76
2022/05/22 01:38:35;;;;;;;4.62;2.10;;;;;;;16.77;55.54;98004.94;5437188;26;20054;-76
2022/05/22 01:41:02;;;;;;;4.25;2.15;;;;;;;16.60;56.03;98005.25;5437424;26;20433;-76
2022/05/22 01:43:30;;;;;;;5.32;2.00;;;;;;;16.06;57.68;98010.59;5436641;26;20058;-76
2022/05/22 01:45:57;;;;;;;5.45;2.28;;;;;;;16.69;55.51;98008.09;5416862;26;20174;-75
2022/05/22 01:48:24;;;;;;;5.05;2.17;;;;;;;16.87;55.11;98007.75;5437229;26;20114;-75
2022/05/22 01:50:52;;;;;;;3.75;1.80;;;;;;;16.34;56.45;98009.59;5436658;26;20046;-75
2022/05/22 01:53:20;;;;;;;3.78;1.90;;;;;;;16.08;57.76;98013.91;5416721;26;20091;-75
2022/05/22 01:55:48;;;;;;;5.72;2.00;;;;;;;16.27;56.94;98009.19;5416772;26;20081;-76
2022/05/22 01:58:14;;;;;;;6.75;2.37;;;;;;;16.04;58.00;98007.22;5436634;26;20110;-76
2022/05/22 02:00:42;;;;;;;4.62;2.00;;;;;;;16.15;57.31;98015.16;5437088;26;20457;-76
2022/05/22 02:03:09;;;;;;;4.45;2.28;;;;;;;16.17;57.23;98008.12;5437152;26;20094;-76
2022/05/22 02:05:36;;;;;;;7.15;2.95;;;;;;;16.65;55.85;98009.19;5436641;26;20063;-76
2022/05/22 02:11:08;;;;;;;5.12;2.22;;;;;;;17.00;54.76;98017.22;5436803;26;20370;-76
2022/05/22 02:13:38;;;;;;;3.70;2.00;;;;;;;18.28;50.48;98025.44;5437098;26;20057;-76
2022/05/22 02:16:06;;;;;;;4.20;1.90;;;;;;;17.57;51.45;98028.91;5437230;26;20115;-76
2022/05/22 02:18:33;;;;;;;5.18;1.98;;;;;;;18.07;50.03;98029.63;5416258;26;20089;-76
2022/05/22 02:21:00;;;;;;;3.83;1.80;;;;;;;18.06;50.00;98030.59;5437162;26;20101;-76
2022/05/22 02:23:27;;;;;;;3.28;1.85;;;;;;;18.39;48.71;98027.25;5437117;26;20313;-76
2022/05/22 02:25:55;;;;;;;4.68;1.90;;;;;;;19.41;46.00;98026.41;5436787;26;20107;-76
2022/05/22 02:28:23;;;;;;;6.57;2.67;;;;;;;19.84;44.89;98029.09;5416562;26;20107;-76
2022/05/22 02:30:59;;;;;;;5.53;1.90;;;;;;;20.31;43.66;98033.09;5436907;26;20448;-76
2022/05/22 02:33:26;;;;;;;6.07;2.05;;;;;;;21.39;41.41;98040.63;5416164;26;20074;-76
2022/05/22 02:35:54;;;;;;;5.97;1.95;;;;;;;21.33;41.26;98036.72;5437014;26;20070;-76
2022/05/22 02:38:20;;;;;;;4.80;2.45;;;;;;;21.37;40.79;98044.22;5436840;26;20069;-76
2022/05/22 02:40:49;;;;;;;3.20;1.83;;;;;;;21.14;41.54;98052.34;5436685;26;20129;-76
2022/05/22 02:43:15;;;;;;;4.55;1.73;;;;;;;21.70;40.09;98057.97;5436877;26;20095;-76
2022/05/22 02:45:42;;;;;;;4.15;1.73;;;;;;;21.46;40.45;98047.78;5436990;26;20074;-76
2022/05/22 02:48:11;;;;;;;3.78;1.92;;;;;;;21.04;41.32;98041.81;5436394;26;20122;-76
2022/05/22 02:50:38;;;;;;;6.53;2.00;;;;;;;21.29;40.56;98044.03;5416395;26;20163;-75
2022/05/22 02:53:07;;;;;;;3.87;1.77;;;;;;;19.81;43.26;98045.88;5436607;26;20066;-76
2022/05/22 02:55:34;;;;;;;4.53;1.83;;;;;;;19.41;44.01;98042.94;5436906;26;20122;-76
2022/05/22 02:58:01;;;;;;;3.37;1.55;;;;;;;19.11;44.85;98051.41;5436767;26;20059;-75
2022/05/22 03:00:30;;;;;;;8.63;2.17;;;;;;;18.71;45.54;98046.59;5436443;26;20110;-76
2022/05/22 03:02:58;;;;;;;3.72;1.52;;;;;;;18.89;45.67;98049.59;5436901;26;20053;-76
2022/05/22 03:05:26;;;;;;;3.17;1.50;;;;;;;18.42;46.22;98051.38;5436758;26;20055;-76
2022/05/22 03:07:54;;;;;;;3.40;1.73;;;;;;;18.97;45.09;98049.84;5416015;26;20051;-76
2022/05/22 03:10:21;;;;;;;3.95;1.75;;;;;;;17.98;47.62;98044.22;5436731;26;20130;-76
2022/05/22 03:12:48;;;;;;;3.22;1.65;;;;;;;18.87;45.81;98046.28;5436569;26;20043;-76
2022/05/22 03:15:15;;;;;;;4.85;1.62;;;;;;;19.67;43.52;98046.12;5436191;26;20067;-76
2022/05/22 03:17:42;;;;;;;4.07;1.52;;;;;;;20.02;42.69;98053.78;5436644;26;20131;-76
2022/05/22 03:20:10;;;;;;;3.55;1.62;;;;;;;20.68;41.20;98051.84;5436828;26;20098;-76
2022/05/22 03:22:37;;;;;;;6.87;1.80;;;;;;;20.15;42.25;98054.44;5436230;26;20106;-76
2022/05/22 03:25:08;;;;;;;5.43;1.85;;;;;;;20.85;40.94;98054.84;5437624;26;20699;-76
2022/05/22 03:27:35;;;;;;;4.93;1.50;;;;;;;19.98;42.71;98046.28;5437618;26;20056;-76
2022/05/22 03:30:04;;;;;;;2.50;1.58;;;;;;;19.30;44.56;98048.19;5437386;26;20112;-76
2022/05/22 03:32:32;;;;;;;4.87;1.65;;;;;;;19.69;43.82;98046.88;5417055;26;20047;-76
2022/05/22 03:35:00;;;;;;;4.78;1.70;;;;;;;18.86;46.08;98041.16;5440052;26;20827;-76
2022/05/22 03:37:27;;;;;;;3.67;1.85;;;;;;;18.73;47.08;98036.88;5442077;26;20106;-76
2022/05/22 03:39:54;;;;;;;7.93;1.90;;;;;;;18.43;47.51;98041.78;5417375;26;20114;-76
2022/05/22 03:42:21;;;;;;;4.45;1.90;;;;;;;18.63;46.71;98040.28;5437239;26;20049;-76
2022/05/22 03:44:48;;;;;;;5.45;1.73;;;;;;;18.78;46.33;98039.97;5437603;26;20111;-76
2022/05/22 03:47:15;;;;;;;4.25;1.62;;;;;;;18.62;46.49;98044.66;5417219;26;20134;-76
2022/05/22 03:49:46;;;;;;;4.95;1.70;;;;;;;18.93;45.95;98056.28;5437184;26;20073;-76
2022/05/22 03:52:13;;;;;;;3.87;1.75;;;;;;;19.00;45.89;98054.00;5437417;26;20039;-76
2022/05/22 03:54:40;;;;;;;5.18;1.87;;;;;;;19.28;45.20;98052.72;5437526;26;20126;-76
2022/05/22 03:57:10;;;;;;;7.47;1.70;;;;;;;19.44;43.83;98050.53;5437040;26;20058;-76
2022/05/22 03:59:41;;;;;;;4.20;1.50;;;;;;;18.97;45.15;98055.09;5437517;26;20046;-76
2022/05/22 04:02:08;;;;;;;5.62;1.67;;;;;;;18.44;46.59;98061.72;5437624;26;20054;-76
2022/05/22 04:04:35;;;;;;;2.45;1.52;;;;;;;18.78;45.58;98053.03;5437000;26;20060;-76
2022/05/22 04:07:02;;;;;;;5.95;1.60;;;;;;;19.44;43.57;98057.56;5417171;26;20122;-76
2022/05/22 04:09:29;;;;;;;4.90;1.50;;;;;;;19.05;44.45;98057.94;5437568;26;20105;-76
2022/05/22 04:11:56;;;;;;;4.55;1.50;;;;;;;18.76;44.87;98065.37;5437099;26;20405;-76
2022/05/22 04:14:24;;;;;;;5.57;1.80;;;;;;;19.03;44.08;98059.84;5437365;26;20118;-76
2022/05/22 04:16:51;;;;;;;8.60;1.73;;;;;;;19.44;43.19;98060.19;5437455;26;20110;-76
2022/05/22 04:19:18;;;;;;;4.87;1.60;;;;;;;20.65;40.56;98067.00;5437042;26;20491;-76
2022/05/22 04:21:45;;;;;;;3.35;1.67;;;;;;;20.24;41.07;98065.97;5437663;26;20102;-76
2022/05/22 04:27:05;;;;;;;5.40;1.55;;;;;;;20.92;40.02;98063.84;5437621;26;20110;-76
2022/05/22 04:29:33;;;;;;;3.97;1.50;;;;;;;20.85;39.51;98063.53;5437509;26;20054;-77
2022/05/22 04:32:00;;;;;;;4.18;1.73;;;;;;;20.54;39.55;98059.19;5436775;26;20046;-76
2022/05/22 04:34:27;;;;;;;4.72;1.52;;;;;;;20.36;40.36;98070.19;5437352;26;20428;-76
2022/05/22 04:36:55;;;;;;;3.55;1.55;;;;;;;21.09;39.03;98064.06;5437594;26;20106;-76
2022/05/22 04:39:22;;;;;;;5.53;1.87;;;;;;;20.76;39.41;98073.00;5416410;26;20065;-76
2022/05/22 04:41:49;;;;;;;3.10;1.55;;;;;;;20.46;39.73;98071.13;5437426;26;20051;-76
2022/05/22 04:44:16;;;;;;;2.87;1.52;;;;;;;21.40;38.12;98077.22;5437377;26;20134;-76
2022/05/22 04:46:43;;;;;;;3.05;1.52;;;;;;;21.31;38.25;98075.38;5436999;26;20106;-77
2022/05/22 04:49:10;;;;;;;2.28;1.40;;;;;;;22.74;35.78;98080.97;5437316;26;20060;-77
2022/05/22 04:51:37;;;;;;;4.25;1.52;;;;;;;21.11;38.44;98079.69;5437392;26;20115;-77
2022/05/22 04:54:04;;;;;;;4.55;1.52;;;;;;;22.62;35.73;98086.53;5436973;26;20123;-77
2022/05/22 04:56:31;;;;;;;5.43;1.58;;;;;;;22.05;36.47;98082.91;5417063;26;20460;-77
2022/05/22 04:58:58;;;;;;;4.20;1.70;;;;;;;22.08;36.67;98078.22;5437191;26;20118;-76
2022/05/22 05:01:25;;;;;;;4.85;1.50;;;;;;;21.42;38.47;98084.97;5436972;26;20412;-76
2022/05/22 05:03:52;;;;;;;4.72;1.70;;;;;;;19.78;41.33;98066.22;5437223;26;20062;-76
2022/05/22 05:06:20;;;;;;;3.40;1.60;;;;;;;19.03;43.21;98078.16;5437401;26;20130;-76
2022/05/22 05:08:47;;;;;;;3.90;1.70;;;;;;;18.41;44.94;98083.69;5436776;26;20358;-76
2022/05/22 05:11:14;;;;;;;4.05;1.70;;;;;;;19.24;43.40;98080.03;5437248;26;20047;-76
2022/05/22 05:13:41;;;;;;;4.15;1.73;;;;;;;19.01;44.38;98079.19;5436909;26;20107;-76
2022/05/22 05:16:11;;;;;;;6.60;1.95;;;;;;;19.72;42.64;98072.78;5437368;26;20059;-77
2022/05/22 05:18:39;;;;;;;2.75;1.35;;;;;;;19.25;43.93;98074.72;5437376;26;20326;-77
2022/05/22 05:21:11;;;;;;;4.70;1.77;;;;;;;19.25;44.27;98082.56;5437080;26;20054;-77
2022/05/22 05:23:38;;;;;;;5.60;1.77;;;;;;;18.84;45.19;98066.59;5416963;26;20134;-77
2022/05/22 05:26:06;;;;;;;5.22;1.40;;;;;;;18.89;45.42;98069.69;5437439;26;20114;-78
2022/05/22 05:28:33;;;;;;;4.78;1.70;;;;;;;19.42;44.47;98075.16;5436799;26;20067;-77
2022/05/22 05:31:00;;;;;;;2.55;1.60;;;;;;;19.18;44.78;98077.91;5437113;26;20109;-77
2022/05/22 05:33:27;;;;;;;4.75;1.60;;;;;;;19.53;43.87;98073.37;5437089;26;20062;-77
2022/05/22 05:35:54;;;;;;;5.07;1.77;;;;;;;18.12;47.02;98075.38;5436835;26;20111;-77
2022/05/22 05:38:21;;;;;;;5.00;1.55;;;;;;;18.39;46.58;98074.28;5437300;26;20085;-77
2022/05/22 05:41:08;;;;;;;5.60;1.90;;;;;;;18.76;46.62;98077.63;5420558;26;20111;-77
2022/05/22 05:43:37;;;;;;;4.62;1.85;;;;;;;19.63;43.93;98069.12;5436889;26;20472;-77
2022/05/22 05:46:04;;;;;;;4.12;1.60;;;;;;;19.69;44.79;98078.28;5416935;26;20363;-77
2022/05/22 05:48:39;;;;;;;4.65;1.65;;;;;;;19.71;43.65;98084.22;5436982;26;20047;-77
2022/05/22 05:51:06;;;;;;;5.75;1.77;;;;;;;19.50;44.20;98084.09;5437389;26;20102;-77
2022/05/22 05:53:33;;;;;;;3.95;1.73;;;;;;;20.15;43.10;98091.12;5436987;26;20098;-77
2022/05/22 05:56:05;;;;;;;6.00;1.80;;;;;;;20.47;42.65;98082.44;5436868;26;20122;-77
2022/05/22 05:58:44;;;;;;;6.45;1.85;;;;;;;20.41;42.45;98086.38;5437259;26;20050;-77
2022/05/22 06:01:13;;;;;;;5.68;1.90;;;;;;;20.41;42.13;98086.38;5437334;26;20093;-77
2022/05/22 06:03:40;;;;;;;6.30;1.83;;;;;;;20.61;42.27;98083.94;5436913;26;20549;-77
2022/05/22 06:06:08;;;;;;;5.50;1.90;;;;;;;21.64;39.43;98090.00;5417086;26;20062;-77
2022/05/22 06:08:36;;;;;;;4.53;1.73;;;;;;;21.53;39.11;98096.19;5437026;26;20103;-76
2022/05/22 06:11:03;;;;;;;4.68;1.62;;;;;;;22.19;37.60;98093.03;5416399;26;20117;-77
2022/05/22 06:13:30;;;;;;;3.33;1.65;;;;;;;22.25;38.04;98097.75;5436977;26;20381;-77
2022/05/22 06:15:57;;;;;;;3.35;1.60;;;;;;;22.57;36.38;98094.84;5437306;26;20123;-76
2022/05/22 06:18:24;;;;;;;2.17;1.40;;;;;;;22.19;37.58;98088.59;5437611;26;20608;-77
2022/05/22 06:20:51;;;;;;;7.00;1.73;;;;;;;22.47;37.59;98092.22;5441410;26;20119;-77
2022/05/22 06:23:21;;;;;;;3.75;1.70;;;;;;;22.72;37.18;98096.06;5438906;26;20619;-77
2022/05/22 06:25:48;;;;;;;3.85;1.73;;;;;;;22.97;35.64;98088.59;5436703;26;20117;-77
2022/05/22 06:28:16;;;;;;;3.83;1.35;;;;;;;22.91;36.01;98089.97;5436932;26;20122;-77
2022/05/22 06:30:43;;;;;;;3.20;1.52;;;;;;;22.65;36.69;98091.50;5436467;26;20048;-77
2022/05/22 06:33:16;;;;;;;4.50;1.50;;;;;;;22.29;37.40;98096.50;5437091;26;20077;-77
2022/05/22 06:35:44;;;;;;;4.30;1.45;;;;;;;22.47;37.21;98096.66;5437152;26;20106;-77
2022/05/22 06:39:49;;;;;;;3.80;1.60;;;;;;;22.91;36.32;98087.34;5436470;26;20130;-76
2022/05/22 06:40:58;;;;;;;6.10;1.70;;;;;;;23.04;36.49;98089.66;5436969;26;20126;-77
2022/05/22 06:43:25;;;;;;;3.10;1.52;;;;;;;22.16;36.56;98082.81;5436717;26;20118;-76
2022/05/22 06:45:53;;;;;;;4.57;1.73;;;;;;;22.36;36.90;98081.03;5436560;26;20059;-77
2022/05/22 06:48:20;;;;;;;5.93;1.42;;;;;;;22.46;36.83;98085.31;5436803;26;20106;-77
2022/05/22 06:50:47;;;;;;;3.12;1.50;;;;;;;22.37;36.43;98083.50;5436990;26;20519;-77
2022/05/22 06:53:14;;;;;;;2.85;1.60;;;;;;;22.89;35.80;98084.03;5436284;26;20104;-77
2022/05/22 06:55:40;;;;;;;6.37;1.70;;;;;;;22.62;37.19;98087.34;5436789;26;20430;-77
2022/05/22 06:58:08;;;;;;;5.05;1.40;;;;;;;23.05;36.12;98079.00;5437036;26;20050;-77
2022/05/22 07:00:35;;;;;;;3.05;1.50;;;;;;;23.52;35.48;98083.41;5437468;26;20099;-77
2022/05/22 07:03:03;;;;;;;3.40;1.60;;;;;;;23.74;35.05;98087.47;5417451;26;20063;-77
2022/05/22 07:05:30;;;;;;;6.57;1.50;;;;;;;23.54;34.20;98078.81;5437722;26;20118;-77
2022/05/22 07:07:57;;;;;;;4.85;1.52;;;;;;;23.96;34.38;98084.44;5437178;26;20062;-76
2022/05/22 07:13:19;;;;;;;4.85;1.80;;;;;;;23.99;34.37;98083.31;5437352;26;20115;-76
2022/05/22 07:15:59;;;;;;;2.95;1.50;;;;;;;24.09;34.21;98086.69;5398690;26;20114;-76
2022/05/22 07:18:46;;;;;;;6.70;1.80;;;;;;;24.31;33.80;98081.00;5437514;26;20054;-78
2022/05/22 07:21:13;;;;;;;4.20;1.40;;;;;;;23.70;33.57;98081.66;5437330;26;20114;-77
2022/05/22 07:23:40;;;;;;;4.40;1.42;;;;;;;24.04;33.12;98075.78;5437768;26;20070;-78
2022/05/22 07:26:07;;;;;;;4.28;1.77;;;;;;;23.92;34.03;98070.72;5437796;26;20062;-77
2022/05/22 07:28:34;;;;;;;3.58;1.60;;;;;;;23.18;35.54;98065.53;5437185;26;20117;-77
2022/05/22 07:31:01;;;;;;;6.68;1.60;;;;;;;24.06;33.77;98064.13;5437461;26;20043;-77
2022/05/22 07:33:28;;;;;;;4.18;1.40;;;;;;;24.70;32.62;98065.69;5437183;26;20059;-77
2022/05/22 07:35:56;;;;;;;5.03;1.45;;;;;;;25.56;32.17;98068.31;5437437;26;20067;-77
2022/05/22 07:38:23;;;;;;;5.25;1.95;;;;;;;26.76;29.82;98080.28;5437539;26;20085;-77
2022/05/22 07:40:52;;;;;;;9.43;1.90;;;;;;;27.74;28.43;98072.94;5437419;26;20070;-77
2022/05/22 07:43:19;;;;;;;3.05;1.50;;;;;;;28.03;27.75;98074.94;5437524;26;20370;-78
2022/05/22 07:45:46;;;;;;;4.35;1.60;;;;;;;26.73;28.12;98076.16;5437730;26;20059;-77
2022/05/22 07:48:13;;;;;;;4.15;1.40;;;;;;;27.12;29.36;98064.87;5437115;26;20071;-77
2022/05/22 07:50:41;;;;;;;4.78;1.60;;;;;;;25.17;31.82;98067.16;5437741;26;20152;-77
2022/05/22 07:53:08;;;;;;;3.95;1.60;;;;;;;25.47;32.07;98063.16;5437464;26;20071;-77
2022/05/22 07:55:35;;;;;;;6.12;2.10;;;;;;;25.20;32.41;98057.13;5437176;26;20061;-78
2022/05/22 07:58:02;;;;;;;4.30;1.60;;;;;;;25.46;31.69;98046.50;5437406;26;20114;-77
2022/05/22 08:00:29;;;;;;;2.92;1.40;;;;;;;25.12;31.80;98043.88;5437604;26;20102;-77
2022/05/22 08:02:56;;;;;;;5.53;1.62;;;;;;;24.30;33.59;98052.97;5437162;26;20067;-77
2022/05/22 08:05:23;;;;;;;4.62;1.62;;;;;;;24.89;32.35;98043.53;5437487;26;20111;-77
2022/05/22 08:07:51;;;;;;;3.62;1.75;;;;;;;24.70;31.68;98041.94;5437497;26;20106;-76
2022/05/22 08:10:18;;;;;;;2.78;1.50;;;;;;;23.94;32.78;98041.59;5436980;26;20083;-76
2022/05/22 08:12:47;;;;;;;3.47;1.65;;;;;;;25.46;30.29;98041.22;5437477;26;20081;-76
2022/05/22 08:15:16;;;;;;;4.22;1.55;;;;;;;25.26;31.25;98038.00;5417103;26;20110;-76
2022/05/22 08:17:44;;;;;;;4.95;1.52;;;;;;;25.06;30.91;98040.03;5416654;26;20129;-76
2022/05/22 08:20:14;;;;;;;4.55;1.50;;;;;;;24.78;32.03;98033.25;5437517;26;20118;-77
2022/05/22 08:22:46;;;;;;;4.87;1.30;;;;;;;25.47;29.71;98026.19;5437570;26;20090;-77
2022/05/22 08:25:15;;;;;;;4.40;1.62;;;;;;;25.90;29.24;98022.53;5437093;26;20083;-77
2022/05/22 08:27:42;;;;;;;3.05;1.52;;;;;;;26.52;29.65;98015.81;5437313;26;20553;-77
2022/05/22 08:30:11;;;;;;;4.10;1.50;;;;;;;26.27;28.95;98021.25;5437233;26;20472;-77
2022/05/22 08:32:39;;;;;;;5.35;1.65;;;;;;;27.14;28.37;98025.00;5437451;26;20425;-77
2022/05/22 08:35:11;;;;;;;5.80;1.60;;;;;;;27.58;27.43;98020.00;5417583;26;20058;-77
2022/05/22 08:37:37;;;;;;;2.95;1.42;;;;;;;27.77;28.23;98032.84;5436939;26;20055;-77
2022/05/22 08:40:05;;;;;;;6.80;1.77;;;;;;;26.61;28.16;98032.50;5437493;26;20130;-77
2022/05/22 08:42:41;;;;;;;3.35;1.40;;;;;;;27.33;28.15;98019.28;5437431;26;20111;-77
2022/05/22 08:45:19;;;;;;;5.90;1.80;;;;;;;26.83;28.79;98014.28;5416797;26;20401;-76
2022/05/22 08:48:17;;;;;;;6.30;1.90;;;;;;;26.16;28.89;98025.06;5437225;26;20542;-77
2022/05/22 08:50:46;;;;;;;4.25;1.48;;;;;;;24.93;31.98;98015.84;5430745;26;20073;-76
2022/05/22 08:53:23;;;;;;;3.33;1.60;;;;;;;25.55;31.09;98023.56;5436843;26;20110;-76
2022/05/22 08:58:59;;;;;;;4.85;1.60;;;;;;;24.82;32.50;98013.47;5437100;26;20051;-76
2022/05/22 09:02:11;;;;;;;4.03;1.80;;;;;;;25.04;31.66;98020.06;5422626;26;20111;-77
2022/05/22 09:04:47;;;;;;;6.03;1.80;;;;;;;24.62;32.16;98019.94;5439925;26;20114;-77
2022/05/22 09:07:37;;;;;;;2.85;1.35;;;;;;;24.17;33.10;98019.06;5416826;26;20130;-76
2022/05/22 09:10:15;;;;;;;3.70;1.48;;;;;;;25.02;31.75;98017.59;5437417;26;20066;-76
2022/05/22 09:12:56;;;;;;;3.15;1.23;;;;;;;25.22;32.15;98015.53;5436938;26;20053;-76
2022/05/22 09:15:46;;;;;;;4.30;1.65;;;;;;;25.33;30.72;98011.78;5436910;26;20055;-76
2022/05/22 09:18:32;;;;;;;4.70;1.60;;;;;;;25.47;31.13;98000.59;5437223;26;20412;-76
2022/05/22 09:21:14;;;;;;;3.87;1.75;;;;;;;25.41;31.62;98013.59;5436520;26;20114;-77
2022/05/22 09:23:44;;;;;;;7.12;1.58;;;;;;;24.84;30.79;98024.69;5437315;26;20405;-76
2022/05/22 09:26:21;;;;;;;5.50;1.52;;;;;;;25.96;30.70;98029.81;5436918;26;20379;-77
2022/05/22 09:29:25;;;;;;;3.95;1.60;;;;;;;25.22;30.67;98027.91;5416767;26;20387;-77
2022/05/22 09:32:26;;;;;;;4.03;1.60;;;;;;;26.24;29.97;98020.56;5421967;26;20061;-77
2022/05/22 09:34:59;;;;;;;6.20;1.70;;;;;;;26.74;29.05;98008.19;5436867;26;20047;-77
2022/05/22 09:38:00;;;;;;;3.67;1.73;;;;;;;26.61;28.93;98006.06;5437277;26;20094;-77
2022/05/22 09:40:48;;;;;;;5.18;1.73;;;;;;;26.32;28.59;98014.47;5436913;26;20107;-77
2022/05/22 09:43:41;;;;;;;4.43;1.40;;;;;;;26.48;28.92;98008.38;5437157;26;20051;-77
2022/05/22 09:46:13;;;;;;;5.32;1.75;;;;;;;26.89;29.04;98000.34;5416986;26;20103;-77
2022/05/22 09:49:04;;;;;;;4.00;1.70;;;;;;;26.76;27.94;98001.72;5416343;26;20123;-77
2022/05/22 09:51:50;;;;;;;5.15;1.55;;;;;;;25.84;29.11;98002.03;5437266;26;20511;-77
2022/05/22 09:54:17;;;;;;;4.68;1.90;;;;;;;24.76;30.29;97988.53;5436767;26;20075;-77
2022/05/22 09:57:36;;;;;;;3.92;1.42;;;;;;;24.31;32.58;98001.91;5437504;26;20065;-77
2022/05/22 10:00:08;;;;;;;3.50;1.62;;;;;;;25.74;30.02;98002.19;5405773;26;20125;-76
2022/05/22 10:02:46;;;;;;;5.10;1.60;;;;;;;24.75;30.96;97999.25;5436882;26;20059;-76
2022/05/22 10:05:38;;;;;;;4.72;1.85;;;;;;;24.56;31.51;97999.44;5437227;26;20051;-76
2022/05/22 10:08:43;;;;;;;5.15;1.62;;;;;;;25.61;30.28;97997.31;5437121;26;20556;-76
2022/05/22 10:11:28;;;;;;;3.58;1.73;;;;;;;25.29;30.46;97986.66;5416800;26;20431;-76
2022/05/22 10:14:17;;;;;;;3.62;1.65;;;;;;;25.70;30.52;97982.34;5436901;26;20069;-76
2022/05/22 10:16:56;;;;;;;4.20;1.77;;;;;;;25.27;30.17;97983.34;5436758;26;20074;-76
2022/05/22 10:19:35;;;;;;;4.18;1.60;;;;;;;24.56;32.24;97983.63;5436948;26;20077;-76
2022/05/22 10:22:07;;;;;;;5.62;1.70;;;;;;;24.95;32.83;97969.00;5437106;26;20452;-77
2022/05/22 10:25:03;;;;;;;5.97;1.80;;;;;;;25.43;31.45;97977.31;5436977;26;20103;-77
2022/05/22 10:27:48;;;;;;;4.15;1.58;;;;;;;26.67;30.00;97978.91;5421826;26;20047;-77
2022/05/22 10:30:30;;;;;;;3.75;1.67;;;;;;;24.32;32.39;97965.81;5416130;26;20046;-77
2022/05/22 10:33:08;;;;;;;4.18;1.70;;;;;;;24.57;33.51;97967.66;5416658;26;20107;-77
2022/05/22 10:35:45;;;;;;;7.20;1.73;;;;;;;25.31;31.99;97963.59;5437025;26;20507;-77
2022/05/22 10:38:32;;;;;;;4.90;1.65;;;;;;;25.49;32.31;97958.16;5416024;26;20055;-77
2022/05/22 10:44:11;;;;;;;8.40;1.92;;;;;;;26.29;29.80;97974.31;5436521;26;20119;-77
2022/05/22 10:46:54;;;;;;;7.10;1.98;;;;;;;26.25;30.78;97956.09;5437002;26;20069;-77
2022/05/22 10:49:24;;;;;;;5.15;2.15;;;;;;;27.60;29.90;97955.22;5436941;26;20719;-77
2022/05/22 10:52:00;;;;;;;5.12;2.20;;;;;;;27.34;29.13;97965.31;5416067;26;20386;-77
2022/05/22 10:54:44;;;;;;;3.83;1.98;;;;;;;27.28;29.14;97955.41;5436837;26;20071;-77
2022/05/22 10:57:17;;;;;;;4.65;1.90;;;;;;;28.29;27.82;97962.38;5416828;26;20134;-77
2022/05/22 10:59:44;;;;;;;3.62;1.77;;;;;;;28.08;28.92;97952.44;5436999;26;20067;-77
2022/05/22 11:02:25;;;;;;;7.20;2.00;;;;;;;28.22;27.24;97956.94;5436867;26;20048;-76
2022/05/22 11:04:54;;;;;;;6.28;2.15;;;;;;;27.60;28.18;97971.09;5436297;26;20126;-76
2022/05/22 11:07:28;;;;;;;6.65;2.00;;;;;;;26.85;30.09;97960.16;5436601;26;20075;-77
2022/05/22 11:10:04;;;;;;;4.53;1.90;;;;;;;27.12;30.28;97958.97;5436707;26;20099;-77
2022/05/22 11:12:31;;;;;;;4.10;1.60;;;;;;;26.71;30.02;97960.88;5416016;26;20125;-76
2022/05/22 11:15:09;;;;;;;6.20;2.08;;;;;;;26.78;30.25;97953.91;5436747;26;20350;-76
2022/05/22 11:17:36;;;;;;;4.87;1.80;;;;;;;26.10;31.53;97949.03;5436806;26;20114;-77
2022/05/22 11:20:16;;;;;;;4.10;1.95;;;;;;;25.71;31.58;97948.81;5415897;26;20106;-77
2022/05/22 11:23:03;;;;;;;5.55;1.90;;;;;;;26.09;31.38;97945.56;5436832;26;20121;-77
2022/05/22 11:25:41;;;;;;;3.72;1.73;;;;;;;26.39;31.36;97938.78;5415951;26;20065;-77
2022/05/22 11:28:34;;;;;;;4.25;1.87;;;;;;;26.81;30.51;97930.56;5436664;26;20086;-77
2022/05/22 11:31:25;;;;;;;4.68;1.90;;;;;;;25.89;31.89;97928.37;5436417;26;20125;-78
2022/05/22 11:34:11;;;;;;;5.70;1.73;;;;;;;26.94;29.94;97916.78;5415816;26;20039;-77
2022/05/22 11:36:44;;;;;;;4.75;2.03;;;;;;;27.75;29.83;97922.66;5436752;26;20461;-77
2022/05/22 11:39:33;;;;;;;3.10;1.77;;;;;;;26.20;31.22;97924.06;5436592;26;20111;-78
2022/05/22 11:42:38;;;;;;;4.53;1.75;;;;;;;26.77;30.68;97910.72;5436885;26;20192;-77
2022/05/22 11:45:40;;;;;;;5.57;2.08;;;;;;;27.41;30.15;97909.78;5442381;26;20051;-78
2022/05/22 11:48:24;;;;;;;7.43;1.98;;;;;;;27.84;29.29;97911.81;5417126;26;20122;-77
2022/05/22 11:51:16;;;;;;;5.85;1.90;;;;;;;27.65;29.33;97905.19;5417553;26;20059;-77
2022/05/22 11:54:27;;;;;;;6.25;2.08;;;;;;;27.35;29.29;97890.97;5412483;26;20126;-77
2022/05/22 11:57:21;;;;;;;4.12;1.90;;;;;;;28.65;27.50;97882.87;5366271;26;20613;-77
2022/05/22 12:00:03;;;;;;;4.70;1.80;;;;;;;27.95;28.56;97881.41;5366369;26;20134;-77
2022/05/22 12:02:58;;;;;;;4.65;1.73;;;;;;;26.58;30.85;97874.06;5401031;26;20119;-77
2022/05/22 12:06:07;;;;;;;5.55;2.00;;;;;;;27.42;30.78;97871.69;5437570;26;20133;-77
2022/05/22 12:09:03;;;;;;;4.15;1.95;;;;;;;28.14;29.34;97859.69;5411767;26;20122;-77
2022/05/22 12:11:40;;;;;;;3.92;2.00;;;;;;;27.18;30.04;97873.50;5417229;26;20060;-77
2022/05/22 12:14:07;;;;;;;;;;;;;;;27.38;30.21;97872.06;5417414;26;20063;-77
2022/05/22 12:16:46;;;;;;;6.43;2.08;;;;;;;27.62;29.59;97873.69;5437292;26;20014;-77